Terminal Aerodrome Forecast
Issued by NWS Sioux Falls, SD

Home | Current Version | Previous Version | Text Only | Print | Product List | Glossary On
Versions: 1 2 3 4 5 6 7 8 9 10 11 12 13 14 15 16
000
FTUS43 KFSD 230400 AAA
TAFFSD
TAF AMD
KFSD 230400Z 2304/2324 17018G28KT P6SM SCT045 OVC250
     FM230900 17014KT P6SM -TSRA OVC035CB
     FM231100 17010KT P6SM -SHRA OVC025
     FM231500 18012KT P6SM OVC015
     FM231900 20010KT P6SM SHRA VCTS BKN035CB=

USA.gov is the U.S. government's official web portal to all federal, state and local government web resources and services.